Terminal Aerodrome Forecast
Issued by NWS

Home | Current Version | Previous Version | Text Only | Print | Product List | Glossary On
Versions: 1 2 3 4 5 6 7 8 9 10 11 12 13 14 15 16 17 18
000
FTUS43 KGRB 291500 AAB
TAFATW
TAF AMD
KATW 291547Z 2916/3012 20021G30KT 6SM -RAPL SCT020 OVC050
      TEMPO 2916/2918 4SM -RASN BKN035
     FM291800 20021G29KT P6SM -RA OVC020
     FM292200 23015G24KT P6SM BKN040
     FM300100 28012KT P6SM SCT050=

USA.gov is the U.S. government's official web portal to all federal, state and local government web resources and services.